Terminal Aerodrome Forecast
Issued by NWS

Home | Current Version | Previous Version | Text Only | Print | Product List | Glossary On
Versions: 1 2 3 4 5 6 7 8 9 10 11 12 13 14
000
FTUS46 KMTR 050531
TAFMRY
TAF
KMRY 050531Z 0506/0606 23004KT P6SM FEW012 SCT250
     FM051000 VRB04KT P6SM FEW009 SCT250
      TEMPO 0512/0516 BKN009
     FM051700 29009KT P6SM SCT250
     FM060300 24004KT P6SM FEW010 SCT250=

USA.gov is the U.S. government's official web portal to all federal, state and local government web resources and services.